sensor_id;sensor_type;location;lat;lon;timestamp;temperature;humidity
67358;HTU21D;54240;51.096;5.878;2023-03-14T00:02:09;10.05;118.99
67358;HTU21D;54240;51.096;5.878;2023-03-14T00:04:35;10.06;118.99
67358;HTU21D;54240;51.096;5.878;2023-03-14T00:07:03;10.05;118.99
67358;HTU21D;54240;51.096;5.878;2023-03-14T00:09:29;10.06;118.99
67358;HTU21D;54240;51.096;5.878;2023-03-14T00:11:56;10.07;118.99
67358;HTU21D;54240;51.096;5.878;2023-03-14T00:14:22;9.93;118.99
67358;HTU21D;54240;51.096;5.878;2023-03-14T00:16:48;9.97;118.99
67358;HTU21D;54240;51.096;5.878;2023-03-14T00:19:14;9.99;118.99
67358;HTU21D;54240;51.096;5.878;2023-03-14T00:21:40;9.89;118.99
67358;HTU21D;54240;51.096;5.878;2023-03-14T00:24:06;9.97;118.99
67358;HTU21D;54240;51.096;5.878;2023-03-14T00:26:32;9.97;118.99
67358;HTU21D;54240;51.096;5.878;2023-03-14T00:28:58;9.90;118.99
67358;HTU21D;54240;51.096;5.878;2023-03-14T00:31:24;10.03;118.99
67358;HTU21D;54240;51.096;5.878;2023-03-14T00:33:52;9.95;118.99
67358;HTU21D;54240;51.096;5.878;2023-03-14T00:36:19;9.99;118.99
67358;HTU21D;54240;51.096;5.878;2023-03-14T00:38:48;9.88;118.99
67358;HTU21D;54240;51.096;5.878;2023-03-14T00:41:17;9.95;118.99
67358;HTU21D;54240;51.096;5.878;2023-03-14T00:43:44;9.93;118.99
67358;HTU21D;54240;51.096;5.878;2023-03-14T00:46:10;10.03;118.99
67358;HTU21D;54240;51.096;5.878;2023-03-14T00:48:36;10.10;118.99
67358;HTU21D;54240;51.096;5.878;2023-03-14T00:51:04;10.06;118.99
67358;HTU21D;54240;51.096;5.878;2023-03-14T00:53:31;10.12;118.99
67358;HTU21D;54240;51.096;5.878;2023-03-14T00:55:57;10.05;118.99
67358;HTU21D;54240;51.096;5.878;2023-03-14T00:58:23;10.18;118.99
67358;HTU21D;54240;51.096;5.878;2023-03-14T01:00:49;10.20;118.99
67358;HTU21D;54240;51.096;5.878;2023-03-14T01:03:16;10.18;118.99
67358;HTU21D;54240;51.096;5.878;2023-03-14T01:05:42;10.22;118.99
67358;HTU21D;54240;51.096;5.878;2023-03-14T01:08:08;10.21;118.99
67358;HTU21D;54240;51.096;5.878;2023-03-14T01:10:38;10.26;118.99
67358;HTU21D;54240;51.096;5.878;2023-03-14T01:13:05;10.21;118.99
67358;HTU21D;54240;51.096;5.878;2023-03-14T01:15:36;10.21;118.99
67358;HTU21D;54240;51.096;5.878;2023-03-14T01:18:02;10.08;118.99
67358;HTU21D;54240;51.096;5.878;2023-03-14T01:20:29;10.10;118.99
67358;HTU21D;54240;51.096;5.878;2023-03-14T01:22:55;10.07;118.99
67358;HTU21D;54240;51.096;5.878;2023-03-14T01:25:21;10.09;118.99
67358;HTU21D;54240;51.096;5.878;2023-03-14T01:27:47;10.23;118.99
67358;HTU21D;54240;51.096;5.878;2023-03-14T01:30:14;10.14;118.99
67358;HTU21D;54240;51.096;5.878;2023-03-14T01:32:40;10.28;118.99
67358;HTU21D;54240;51.096;5.878;2023-03-14T01:35:06;10.16;118.99
67358;HTU21D;54240;51.096;5.878;2023-03-14T01:37:33;10.26;118.99
67358;HTU21D;54240;51.096;5.878;2023-03-14T01:39:59;10.10;118.99
67358;HTU21D;54240;51.096;5.878;2023-03-14T01:42:25;10.24;118.99
67358;HTU21D;54240;51.096;5.878;2023-03-14T01:44:57;10.11;118.99
67358;HTU21D;54240;51.096;5.878;2023-03-14T01:47:23;10.14;118.99
67358;HTU21D;54240;51.096;5.878;2023-03-14T01:50:10;10.26;118.99
67358;HTU21D;54240;51.096;5.878;2023-03-14T01:52:50;10.29;118.99
67358;HTU21D;54240;51.096;5.878;2023-03-14T01:55:24;10.19;118.99
67358;HTU21D;54240;51.096;5.878;2023-03-14T01:57:55;10.37;118.99
67358;HTU21D;54240;51.096;5.878;2023-03-14T02:00:23;10.22;118.99
67358;HTU21D;54240;51.096;5.878;2023-03-14T02:02:55;10.23;118.99
67358;HTU21D;54240;51.096;5.878;2023-03-14T02:05:26;10.15;118.99
67358;HTU21D;54240;51.096;5.878;2023-03-14T02:07:59;10.09;118.99
67358;HTU21D;54240;51.096;5.878;2023-03-14T02:10:35;10.20;118.99
67358;HTU21D;54240;51.096;5.878;2023-03-14T02:13:04;10.28;118.99
67358;HTU21D;54240;51.096;5.878;2023-03-14T02:15:50;10.22;118.99
67358;HTU21D;54240;51.096;5.878;2023-03-14T02:18:55;10.25;118.99
67358;HTU21D;54240;51.096;5.878;2023-03-14T02:21:49;10.19;118.99
67358;HTU21D;54240;51.096;5.878;2023-03-14T02:24:35;10.25;118.99
67358;HTU21D;54240;51.096;5.878;2023-03-14T02:27:12;10.24;118.99
67358;HTU21D;54240;51.096;5.878;2023-03-14T02:30:00;10.30;118.99
67358;HTU21D;54240;51.096;5.878;2023-03-14T02:32:29;10.35;118.99
67358;HTU21D;54240;51.096;5.878;2023-03-14T02:35:00;10.42;118.99
67358;HTU21D;54240;51.096;5.878;2023-03-14T02:37:41;10.31;118.99
67358;HTU21D;54240;51.096;5.878;2023-03-14T02:40:08;10.34;118.99
67358;HTU21D;54240;51.096;5.878;2023-03-14T02:42:34;10.41;118.99
67358;HTU21D;54240;51.096;5.878;2023-03-14T02:47:44;10.58;118.99
67358;HTU21D;54240;51.096;5.878;2023-03-14T02:50:19;10.41;118.99
67358;HTU21D;54240;51.096;5.878;2023-03-14T02:52:45;10.40;118.99
67358;HTU21D;54240;51.096;5.878;2023-03-14T02:55:12;10.42;118.99
67358;HTU21D;54240;51.096;5.878;2023-03-14T02:57:41;10.39;118.99
67358;HTU21D;54240;51.096;5.878;2023-03-14T03:00:07;10.27;118.99
67358;HTU21D;54240;51.096;5.878;2023-03-14T03:02:36;10.14;118.99
67358;HTU21D;54240;51.096;5.878;2023-03-14T03:05:02;9.99;118.99
67358;HTU21D;54240;51.096;5.878;2023-03-14T03:07:28;9.97;118.99
67358;HTU21D;54240;51.096;5.878;2023-03-14T03:09:56;9.92;118.99
67358;HTU21D;54240;51.096;5.878;2023-03-14T03:12:21;9.76;118.99
67358;HTU21D;54240;51.096;5.878;2023-03-14T03:14:47;9.41;118.99
67358;HTU21D;54240;51.096;5.878;2023-03-14T03:17:14;9.20;118.99
67358;HTU21D;54240;51.096;5.878;2023-03-14T03:19:40;9.09;118.99
67358;HTU21D;54240;51.096;5.878;2023-03-14T03:22:07;9.08;118.99
67358;HTU21D;54240;51.096;5.878;2023-03-14T03:24:33;8.91;118.99
67358;HTU21D;54240;51.096;5.878;2023-03-14T03:27:03;8.88;118.99
67358;HTU21D;54240;51.096;5.878;2023-03-14T03:29:29;8.90;118.99
67358;HTU21D;54240;51.096;5.878;2023-03-14T03:31:56;8.93;118.99
67358;HTU21D;54240;51.096;5.878;2023-03-14T03:34:21;8.93;118.99
67358;HTU21D;54240;51.096;5.878;2023-03-14T03:36:50;8.91;118.99
67358;HTU21D;54240;51.096;5.878;2023-03-14T03:39:16;8.71;118.99
67358;HTU21D;54240;51.096;5.878;2023-03-14T03:41:42;8.72;118.99
67358;HTU21D;54240;51.096;5.878;2023-03-14T03:44:09;8.48;118.99
67358;HTU21D;54240;51.096;5.878;2023-03-14T03:46:35;7.90;118.99
67358;HTU21D;54240;51.096;5.878;2023-03-14T03:49:01;8.23;118.99
67358;HTU21D;54240;51.096;5.878;2023-03-14T03:51:28;8.22;118.99
67358;HTU21D;54240;51.096;5.878;2023-03-14T03:53:56;8.14;118.99
67358;HTU21D;54240;51.096;5.878;2023-03-14T03:56:27;8.29;118.99
67358;HTU21D;54240;51.096;5.878;2023-03-14T03:58:53;8.27;118.99
67358;HTU21D;54240;51.096;5.878;2023-03-14T04:01:19;8.41;118.99
67358;HTU21D;54240;51.096;5.878;2023-03-14T04:03:48;8.47;118.99
67358;HTU21D;54240;51.096;5.878;2023-03-14T04:06:14;8.45;118.99
67358;HTU21D;54240;51.096;5.878;2023-03-14T04:08:43;8.53;118.99
67358;HTU21D;54240;51.096;5.878;2023-03-14T04:11:17;8.56;118.99
67358;HTU21D;54240;51.096;5.878;2023-03-14T04:13:52;8.55;118.99
67358;HTU21D;54240;51.096;5.878;2023-03-14T04:16:22;8.56;118.99
67358;HTU21D;54240;51.096;5.878;2023-03-14T04:18:51;8.51;118.99
67358;HTU21D;54240;51.096;5.878;2023-03-14T04:21:19;8.56;118.99
67358;HTU21D;54240;51.096;5.878;2023-03-14T04:23:54;8.64;118.99
67358;HTU21D;54240;51.096;5.878;2023-03-14T04:26:20;8.72;118.99
67358;HTU21D;54240;51.096;5.878;2023-03-14T04:28:46;8.77;118.99
67358;HTU21D;54240;51.096;5.878;2023-03-14T04:31:18;8.76;118.99
67358;HTU21D;54240;51.096;5.878;2023-03-14T04:33:45;8.86;118.99
67358;HTU21D;54240;51.096;5.878;2023-03-14T04:36:13;8.95;118.99
67358;HTU21D;54240;51.096;5.878;2023-03-14T04:38:40;9.00;118.99
67358;HTU21D;54240;51.096;5.878;2023-03-14T04:41:06;9.00;118.99
67358;HTU21D;54240;51.096;5.878;2023-03-14T04:43:34;9.00;118.99
67358;HTU21D;54240;51.096;5.878;2023-03-14T04:46:06;8.97;118.99
67358;HTU21D;54240;51.096;5.878;2023-03-14T04:48:32;8.90;118.99
67358;HTU21D;54240;51.096;5.878;2023-03-14T04:50:59;9.03;118.99
67358;HTU21D;54240;51.096;5.878;2023-03-14T04:53:28;9.10;118.99
67358;HTU21D;54240;51.096;5.878;2023-03-14T04:55:56;9.16;118.99
67358;HTU21D;54240;51.096;5.878;2023-03-14T04:58:24;9.11;118.99
67358;HTU21D;54240;51.096;5.878;2023-03-14T05:00:51;9.12;118.99
67358;HTU21D;54240;51.096;5.878;2023-03-14T05:03:52;9.01;118.99
67358;HTU21D;54240;51.096;5.878;2023-03-14T05:06:34;8.93;118.99
67358;HTU21D;54240;51.096;5.878;2023-03-14T05:09:00;9.02;118.99
67358;HTU21D;54240;51.096;5.878;2023-03-14T05:11:45;8.98;118.99
67358;HTU21D;54240;51.096;5.878;2023-03-14T05:14:14;8.85;118.99
67358;HTU21D;54240;51.096;5.878;2023-03-14T05:17:06;8.96;118.99
67358;HTU21D;54240;51.096;5.878;2023-03-14T05:19:35;9.06;118.99
67358;HTU21D;54240;51.096;5.878;2023-03-14T05:22:30;8.88;118.99
67358;HTU21D;54240;51.096;5.878;2023-03-14T05:25:15;9.00;118.99
67358;HTU21D;54240;51.096;5.878;2023-03-14T05:27:53;8.91;118.99
67358;HTU21D;54240;51.096;5.878;2023-03-14T05:30:41;8.95;118.99
67358;HTU21D;54240;51.096;5.878;2023-03-14T05:33:26;8.93;118.99
67358;HTU21D;54240;51.096;5.878;2023-03-14T05:36:06;9.00;118.99
67358;HTU21D;54240;51.096;5.878;2023-03-14T05:38:41;9.03;118.99
67358;HTU21D;54240;51.096;5.878;2023-03-14T05:41:30;9.09;118.99
67358;HTU21D;54240;51.096;5.878;2023-03-14T05:43:56;8.97;118.99
67358;HTU21D;54240;51.096;5.878;2023-03-14T05:46:42;9.01;118.99
67358;HTU21D;54240;51.096;5.878;2023-03-14T05:49:28;8.98;118.99
67358;HTU21D;54240;51.096;5.878;2023-03-14T05:52:13;9.02;118.99
67358;HTU21D;54240;51.096;5.878;2023-03-14T05:54:54;8.97;118.99
67358;HTU21D;54240;51.096;5.878;2023-03-14T05:57:38;9.10;118.99
67358;HTU21D;54240;51.096;5.878;2023-03-14T06:00:36;9.04;118.99
67358;HTU21D;54240;51.096;5.878;2023-03-14T06:03:16;9.12;118.99
67358;HTU21D;54240;51.096;5.878;2023-03-14T06:05:45;9.08;118.99
67358;HTU21D;54240;51.096;5.878;2023-03-14T06:08:11;9.05;118.99
67358;HTU21D;54240;51.096;5.878;2023-03-14T06:10:37;9.02;118.99
67358;HTU21D;54240;51.096;5.878;2023-03-14T06:13:03;9.05;118.99
67358;HTU21D;54240;51.096;5.878;2023-03-14T06:15:31;9.07;118.99
67358;HTU21D;54240;51.096;5.878;2023-03-14T06:17:58;9.12;118.99
67358;HTU21D;54240;51.096;5.878;2023-03-14T06:20:26;9.12;118.99
67358;HTU21D;54240;51.096;5.878;2023-03-14T06:22:52;9.23;118.99
67358;HTU21D;54240;51.096;5.878;2023-03-14T06:25:18;9.29;118.99
67358;HTU21D;54240;51.096;5.878;2023-03-14T06:27:46;9.12;118.99
67358;HTU21D;54240;51.096;5.878;2023-03-14T06:30:12;9.21;118.99
67358;HTU21D;54240;51.096;5.878;2023-03-14T06:32:38;9.14;118.99
67358;HTU21D;54240;51.096;5.878;2023-03-14T06:35:08;9.18;118.99
67358;HTU21D;54240;51.096;5.878;2023-03-14T06:37:38;9.23;118.99
67358;HTU21D;54240;51.096;5.878;2023-03-14T06:40:05;9.24;118.99
67358;HTU21D;54240;51.096;5.878;2023-03-14T06:42:48;9.19;118.99
67358;HTU21D;54240;51.096;5.878;2023-03-14T06:45:16;9.20;118.99
67358;HTU21D;54240;51.096;5.878;2023-03-14T06:47:42;9.24;118.99
67358;HTU21D;54240;51.096;5.878;2023-03-14T06:50:09;9.22;118.99
67358;HTU21D;54240;51.096;5.878;2023-03-14T06:52:54;9.18;118.99
67358;HTU21D;54240;51.096;5.878;2023-03-14T06:55:24;9.21;118.99
67358;HTU21D;54240;51.096;5.878;2023-03-14T06:57:52;9.22;118.99
67358;HTU21D;54240;51.096;5.878;2023-03-14T07:00:19;9.24;118.99
67358;HTU21D;54240;51.096;5.878;2023-03-14T07:02:45;9.31;118.99
67358;HTU21D;54240;51.096;5.878;2023-03-14T07:05:21;9.34;118.99
67358;HTU21D;54240;51.096;5.878;2023-03-14T07:07:47;9.47;118.99
67358;HTU21D;54240;51.096;5.878;2023-03-14T07:10:14;9.35;118.99
67358;HTU21D;54240;51.096;5.878;2023-03-14T07:12:39;9.45;118.99
67358;HTU21D;54240;51.096;5.878;2023-03-14T07:15:06;9.51;118.99
67358;HTU21D;54240;51.096;5.878;2023-03-14T07:17:33;9.62;118.99
67358;HTU21D;54240;51.096;5.878;2023-03-14T07:19:59;9.60;118.99
67358;HTU21D;54240;51.096;5.878;2023-03-14T07:22:27;9.51;118.99
67358;HTU21D;54240;51.096;5.878;2023-03-14T07:24:52;9.53;118.99
67358;HTU21D;54240;51.096;5.878;2023-03-14T07:27:21;9.46;118.99
67358;HTU21D;54240;51.096;5.878;2023-03-14T07:29:48;9.50;118.99
67358;HTU21D;54240;51.096;5.878;2023-03-14T07:32:13;9.55;118.99
67358;HTU21D;54240;51.096;5.878;2023-03-14T07:34:41;9.54;118.99
67358;HTU21D;54240;51.096;5.878;2023-03-14T07:37:07;9.50;118.99
67358;HTU21D;54240;51.096;5.878;2023-03-14T07:39:33;9.52;118.99
67358;HTU21D;54240;51.096;5.878;2023-03-14T07:42:04;9.57;118.99
67358;HTU21D;54240;51.096;5.878;2023-03-14T07:44:45;9.59;118.99
67358;HTU21D;54240;51.096;5.878;2023-03-14T07:47:11;9.61;118.99
67358;HTU21D;54240;51.096;5.878;2023-03-14T07:49:37;9.64;118.99
67358;HTU21D;54240;51.096;5.878;2023-03-14T07:52:03;9.71;118.99
67358;HTU21D;54240;51.096;5.878;2023-03-14T07:54:29;9.77;118.99
67358;HTU21D;54240;51.096;5.878;2023-03-14T07:56:54;9.68;118.99
67358;HTU21D;54240;51.096;5.878;2023-03-14T07:59:20;9.71;118.99
67358;HTU21D;54240;51.096;5.878;2023-03-14T08:01:46;9.53;118.99
67358;HTU21D;54240;51.096;5.878;2023-03-14T08:04:12;9.54;118.99
67358;HTU21D;54240;51.096;5.878;2023-03-14T08:06:38;9.52;118.99
67358;HTU21D;54240;51.096;5.878;2023-03-14T08:09:04;9.57;118.99
67358;HTU21D;54240;51.096;5.878;2023-03-14T08:11:30;9.46;118.99
67358;HTU21D;54240;51.096;5.878;2023-03-14T08:13:56;9.26;118.99
67358;HTU21D;54240;51.096;5.878;2023-03-14T08:16:22;9.34;118.99
67358;HTU21D;54240;51.096;5.878;2023-03-14T08:18:48;9.42;118.99
67358;HTU21D;54240;51.096;5.878;2023-03-14T08:21:14;9.04;118.99
67358;HTU21D;54240;51.096;5.878;2023-03-14T08:23:40;8.35;118.99
67358;HTU21D;54240;51.096;5.878;2023-03-14T08:26:06;8.03;118.99
67358;HTU21D;54240;51.096;5.878;2023-03-14T08:28:32;7.97;118.99
67358;HTU21D;54240;51.096;5.878;2023-03-14T08:30:59;7.98;118.99
67358;HTU21D;54240;51.096;5.878;2023-03-14T08:33:27;7.70;118.99
67358;HTU21D;54240;51.096;5.878;2023-03-14T08:35:56;7.31;118.99
67358;HTU21D;54240;51.096;5.878;2023-03-14T08:38:22;7.38;118.99
67358;HTU21D;54240;51.096;5.878;2023-03-14T08:40:48;6.70;118.99
67358;HTU21D;54240;51.096;5.878;2023-03-14T08:43:15;6.75;118.99
67358;HTU21D;54240;51.096;5.878;2023-03-14T08:45:41;6.83;118.99
67358;HTU21D;54240;51.096;5.878;2023-03-14T08:48:07;7.00;118.99
67358;HTU21D;54240;51.096;5.878;2023-03-14T08:50:33;6.90;118.99
67358;HTU21D;54240;51.096;5.878;2023-03-14T08:52:59;6.33;118.99
67358;HTU21D;54240;51.096;5.878;2023-03-14T08:55:26;6.69;118.99
67358;HTU21D;54240;51.096;5.878;2023-03-14T08:57:55;6.53;118.99
67358;HTU21D;54240;51.096;5.878;2023-03-14T09:00:21;6.84;118.99
67358;HTU21D;54240;51.096;5.878;2023-03-14T09:02:47;6.84;118.99
67358;HTU21D;54240;51.096;5.878;2023-03-14T09:05:13;6.68;118.99
67358;HTU21D;54240;51.096;5.878;2023-03-14T09:07:40;6.70;118.99
67358;HTU21D;54240;51.096;5.878;2023-03-14T09:10:08;6.81;118.99
67358;HTU21D;54240;51.096;5.878;2023-03-14T09:12:34;6.93;118.99
67358;HTU21D;54240;51.096;5.878;2023-03-14T09:15:00;6.67;118.99
67358;HTU21D;54240;51.096;5.878;2023-03-14T09:17:26;6.74;118.99
67358;HTU21D;54240;51.096;5.878;2023-03-14T09:19:52;6.86;118.99
67358;HTU21D;54240;51.096;5.878;2023-03-14T09:22:18;6.97;118.99
67358;HTU21D;54240;51.096;5.878;2023-03-14T09:24:44;7.03;118.99
67358;HTU21D;54240;51.096;5.878;2023-03-14T09:27:10;7.04;118.99
67358;HTU21D;54240;51.096;5.878;2023-03-14T09:29:35;6.99;118.99
67358;HTU21D;54240;51.096;5.878;2023-03-14T09:32:01;7.02;118.99
67358;HTU21D;54240;51.096;5.878;2023-03-14T09:34:27;6.41;118.99
67358;HTU21D;54240;51.096;5.878;2023-03-14T09:36:53;6.71;118.99
67358;HTU21D;54240;51.096;5.878;2023-03-14T09:39:19;6.75;118.99
67358;HTU21D;54240;51.096;5.878;2023-03-14T09:41:51;6.83;118.99
67358;HTU21D;54240;51.096;5.878;2023-03-14T09:44:42;6.84;118.99
67358;HTU21D;54240;51.096;5.878;2023-03-14T09:47:14;6.91;118.99
67358;HTU21D;54240;51.096;5.878;2023-03-14T09:49:42;6.54;118.99
67358;HTU21D;54240;51.096;5.878;2023-03-14T09:52:23;6.61;118.99
67358;HTU21D;54240;51.096;5.878;2023-03-14T09:54:53;6.67;118.99
67358;HTU21D;54240;51.096;5.878;2023-03-14T09:57:24;6.68;118.99
67358;HTU21D;54240;51.096;5.878;2023-03-14T09:59:54;6.46;118.99
67358;HTU21D;54240;51.096;5.878;2023-03-14T10:02:30;6.74;118.99
67358;HTU21D;54240;51.096;5.878;2023-03-14T10:04:57;6.81;118.99
67358;HTU21D;54240;51.096;5.878;2023-03-14T10:07:31;6.90;118.99
67358;HTU21D;54240;51.096;5.878;2023-03-14T10:09:58;6.88;118.99
67358;HTU21D;54240;51.096;5.878;2023-03-14T10:12:36;7.17;118.99
67358;HTU21D;54240;51.096;5.878;2023-03-14T10:15:08;7.53;118.99
67358;HTU21D;54240;51.096;5.878;2023-03-14T10:17:40;7.76;118.99
67358;HTU21D;54240;51.096;5.878;2023-03-14T10:20:06;7.83;118.99
67358;HTU21D;54240;51.096;5.878;2023-03-14T10:22:36;7.75;118.99
67358;HTU21D;54240;51.096;5.878;2023-03-14T10:25:05;7.83;118.99
67358;HTU21D;54240;51.096;5.878;2023-03-14T10:27:35;7.93;118.99
67358;HTU21D;54240;51.096;5.878;2023-03-14T10:30:07;7.49;118.99
67358;HTU21D;54240;51.096;5.878;2023-03-14T10:32:34;7.53;118.99
67358;HTU21D;54240;51.096;5.878;2023-03-14T10:40:26;7.72;118.99
67358;HTU21D;54240;51.096;5.878;2023-03-14T10:42:52;7.64;118.99
67358;HTU21D;54240;51.096;5.878;2023-03-14T10:45:22;7.52;118.99
67358;HTU21D;54240;51.096;5.878;2023-03-14T10:47:50;7.44;118.99
67358;HTU21D;54240;51.096;5.878;2023-03-14T10:50:26;7.52;118.99
67358;HTU21D;54240;51.096;5.878;2023-03-14T10:52:54;7.29;114.79
67358;HTU21D;54240;51.096;5.878;2023-03-14T10:55:20;6.71;118.99
67358;HTU21D;54240;51.096;5.878;2023-03-14T10:57:46;6.60;118.99
67358;HTU21D;54240;51.096;5.878;2023-03-14T11:00:18;6.50;118.99
67358;HTU21D;54240;51.096;5.878;2023-03-14T11:22:27;6.51;118.99
67358;HTU21D;54240;51.096;5.878;2023-03-14T11:30:52;7.15;118.99
67358;HTU21D;54240;51.096;5.878;2023-03-14T11:33:37;7.16;118.99
67358;HTU21D;54240;51.096;5.878;2023-03-14T11:36:07;7.08;41.99
67358;HTU21D;54240;51.096;5.878;2023-03-14T11:41:39;6.93;10.49
67358;HTU21D;54240;51.096;5.878;2023-03-14T11:44:19;6.93;45.17
67358;HTU21D;54240;51.096;5.878;2023-03-14T11:49:48;7.02;-6.00
67358;HTU21D;54240;51.096;5.878;2023-03-14T11:52:32;7.00;-6.00
67358;HTU21D;54240;51.096;5.878;2023-03-14T11:55:17;6.88;-6.00
67358;HTU21D;54240;51.096;5.878;2023-03-14T11:57:45;6.95;14.60
67358;HTU21D;54240;51.096;5.878;2023-03-14T12:05:45;7.07;-6.00
67358;HTU21D;54240;51.096;5.878;2023-03-14T12:13:47;7.34;-6.00
67358;HTU21D;54240;51.096;5.878;2023-03-14T12:18:51;7.65;-6.00
67358;HTU21D;54240;51.096;5.878;2023-03-14T12:21:18;7.72;-6.00
67358;HTU21D;54240;51.096;5.878;2023-03-14T12:23:53;8.01;-6.00
67358;HTU21D;54240;51.096;5.878;2023-03-14T12:26:22;8.38;-6.00
67358;HTU21D;54240;51.096;5.878;2023-03-14T12:48:24;5.97;29.27
67358;HTU21D;54240;51.096;5.878;2023-03-14T12:51:05;5.97;-0.67
67358;HTU21D;54240;51.096;5.878;2023-03-14T12:53:42;5.59;16.99
67358;HTU21D;54240;51.096;5.878;2023-03-14T13:04:44;5.83;-6.00
67358;HTU21D;54240;51.096;5.878;2023-03-14T13:07:35;6.04;-6.00
67358;HTU21D;54240;51.096;5.878;2023-03-14T13:12:55;6.40;-6.00
67358;HTU21D;54240;51.096;5.878;2023-03-14T13:18:01;6.76;-6.00
67358;HTU21D;54240;51.096;5.878;2023-03-14T13:20:35;6.84;-6.00
67358;HTU21D;54240;51.096;5.878;2023-03-14T13:23:03;6.86;-6.00
67358;HTU21D;54240;51.096;5.878;2023-03-14T13:25:33;6.98;-6.00
67358;HTU21D;54240;51.096;5.878;2023-03-14T13:28:01;7.05;-6.00
67358;HTU21D;54240;51.096;5.878;2023-03-14T13:30:39;7.20;-6.00
67358;HTU21D;54240;51.096;5.878;2023-03-14T13:33:06;7.44;-6.00
67358;HTU21D;54240;51.096;5.878;2023-03-14T13:36:04;7.64;-6.00
67358;HTU21D;54240;51.096;5.878;2023-03-14T13:38:32;7.90;-6.00
67358;HTU21D;54240;51.096;5.878;2023-03-14T13:41:04;8.08;-6.00
67358;HTU21D;54240;51.096;5.878;2023-03-14T13:43:33;8.33;-6.00
67358;HTU21D;54240;51.096;5.878;2023-03-14T13:46:15;8.07;-6.00
67358;HTU21D;54240;51.096;5.878;2023-03-14T13:48:48;7.97;-6.00
67358;HTU21D;54240;51.096;5.878;2023-03-14T13:51:17;8.05;-6.00
67358;HTU21D;54240;51.096;5.878;2023-03-14T13:53:52;8.22;-6.00
67358;HTU21D;54240;51.096;5.878;2023-03-14T13:56:20;8.47;-6.00
67358;HTU21D;54240;51.096;5.878;2023-03-14T13:58:46;8.37;-6.00
67358;HTU21D;54240;51.096;5.878;2023-03-14T14:01:30;8.35;-6.00
67358;HTU21D;54240;51.096;5.878;2023-03-14T14:04:06;8.41;-6.00
67358;HTU21D;54240;51.096;5.878;2023-03-14T14:06:36;8.37;-6.00
67358;HTU21D;54240;51.096;5.878;2023-03-14T14:11:56;8.64;-6.00
67358;HTU21D;54240;51.096;5.878;2023-03-14T14:14:30;8.68;-6.00
67358;HTU21D;54240;51.096;5.878;2023-03-14T14:16:59;8.71;-6.00
67358;HTU21D;54240;51.096;5.878;2023-03-14T14:19:29;8.85;-6.00
67358;HTU21D;54240;51.096;5.878;2023-03-14T14:21:57;8.70;-6.00
67358;HTU21D;54240;51.096;5.878;2023-03-14T14:24:28;8.74;-6.00
67358;HTU21D;54240;51.096;5.878;2023-03-14T14:27:01;8.98;-6.00
67358;HTU21D;54240;51.096;5.878;2023-03-14T14:29:30;9.11;-6.00
67358;HTU21D;54240;51.096;5.878;2023-03-14T14:32:22;9.21;-6.00
67358;HTU21D;54240;51.096;5.878;2023-03-14T14:37:29;9.27;-6.00
67358;HTU21D;54240;51.096;5.878;2023-03-14T14:39:59;9.48;-6.00
67358;HTU21D;54240;51.096;5.878;2023-03-14T14:42:32;9.63;-6.00
67358;HTU21D;54240;51.096;5.878;2023-03-14T14:44:59;9.66;-6.00
67358;HTU21D;54240;51.096;5.878;2023-03-14T14:47:28;9.84;-6.00
67358;HTU21D;54240;51.096;5.878;2023-03-14T14:49:59;9.78;-6.00
67358;HTU21D;54240;51.096;5.878;2023-03-14T14:52:41;9.76;-6.00
67358;HTU21D;54240;51.096;5.878;2023-03-14T14:55:32;9.57;-6.00
67358;HTU21D;54240;51.096;5.878;2023-03-14T14:58:32;9.26;-6.00
67358;HTU21D;54240;51.096;5.878;2023-03-14T15:01:14;9.34;-6.00
67358;HTU21D;54240;51.096;5.878;2023-03-14T15:03:44;9.46;-6.00
67358;HTU21D;54240;51.096;5.878;2023-03-14T15:06:15;9.71;-6.00
67358;HTU21D;54240;51.096;5.878;2023-03-14T15:08:46;9.36;-6.00
67358;HTU21D;54240;51.096;5.878;2023-03-14T15:11:21;9.39;-6.00
67358;HTU21D;54240;51.096;5.878;2023-03-14T15:13:49;9.26;-6.00
67358;HTU21D;54240;51.096;5.878;2023-03-14T15:16:18;9.21;-6.00
67358;HTU21D;54240;51.096;5.878;2023-03-14T15:18:47;9.29;-6.00
67358;HTU21D;54240;51.096;5.878;2023-03-14T15:21:14;9.21;-6.00
67358;HTU21D;54240;51.096;5.878;2023-03-14T15:23:40;9.20;-6.00
67358;HTU21D;54240;51.096;5.878;2023-03-14T15:26:21;9.17;-6.00
67358;HTU21D;54240;51.096;5.878;2023-03-14T15:28:48;9.19;-6.00
67358;HTU21D;54240;51.096;5.878;2023-03-14T15:31:16;8.97;-6.00
67358;HTU21D;54240;51.096;5.878;2023-03-14T15:33:45;8.93;-6.00
67358;HTU21D;54240;51.096;5.878;2023-03-14T15:36:31;8.92;-6.00
67358;HTU21D;54240;51.096;5.878;2023-03-14T15:38:59;8.85;-6.00
67358;HTU21D;54240;51.096;5.878;2023-03-14T15:41:27;8.76;-6.00
67358;HTU21D;54240;51.096;5.878;2023-03-14T15:43:54;8.85;-6.00
67358;HTU21D;54240;51.096;5.878;2023-03-14T15:46:21;8.76;-6.00
67358;HTU21D;54240;51.096;5.878;2023-03-14T15:48:49;8.71;-6.00
67358;HTU21D;54240;51.096;5.878;2023-03-14T15:51:15;8.57;-6.00
67358;HTU21D;54240;51.096;5.878;2023-03-14T15:53:41;8.39;-6.00
67358;HTU21D;54240;51.096;5.878;2023-03-14T15:56:14;8.34;-6.00
67358;HTU21D;54240;51.096;5.878;2023-03-14T15:58:40;8.38;-6.00
67358;HTU21D;54240;51.096;5.878;2023-03-14T16:01:07;8.43;-6.00
67358;HTU21D;54240;51.096;5.878;2023-03-14T16:03:35;8.18;-6.00
67358;HTU21D;54240;51.096;5.878;2023-03-14T16:06:01;8.20;-6.00
67358;HTU21D;54240;51.096;5.878;2023-03-14T16:08:27;8.23;-6.00
67358;HTU21D;54240;51.096;5.878;2023-03-14T16:10:58;8.28;-6.00
67358;HTU21D;54240;51.096;5.878;2023-03-14T16:13:24;8.32;-6.00
67358;HTU21D;54240;51.096;5.878;2023-03-14T16:15:58;8.35;-6.00
67358;HTU21D;54240;51.096;5.878;2023-03-14T16:18:27;8.36;-6.00
67358;HTU21D;54240;51.096;5.878;2023-03-14T16:20:56;8.20;-6.00
67358;HTU21D;54240;51.096;5.878;2023-03-14T16:23:22;8.17;-6.00
67358;HTU21D;54240;51.096;5.878;2023-03-14T16:25:48;8.16;-6.00
67358;HTU21D;54240;51.096;5.878;2023-03-14T16:28:14;8.12;-6.00
67358;HTU21D;54240;51.096;5.878;2023-03-14T16:30:40;7.97;-6.00
67358;HTU21D;54240;51.096;5.878;2023-03-14T16:33:07;7.96;-6.00
67358;HTU21D;54240;51.096;5.878;2023-03-14T16:35:37;7.93;-6.00
67358;HTU21D;54240;51.096;5.878;2023-03-14T16:38:04;7.71;-6.00
67358;HTU21D;54240;51.096;5.878;2023-03-14T16:40:30;7.73;-6.00
67358;HTU21D;54240;51.096;5.878;2023-03-14T16:42:56;7.76;-6.00
67358;HTU21D;54240;51.096;5.878;2023-03-14T16:45:22;7.48;-6.00
67358;HTU21D;54240;51.096;5.878;2023-03-14T16:47:48;7.54;-6.00
67358;HTU21D;54240;51.096;5.878;2023-03-14T16:50:14;7.39;-6.00
67358;HTU21D;54240;51.096;5.878;2023-03-14T16:52:40;7.43;-6.00
67358;HTU21D;54240;51.096;5.878;2023-03-14T16:55:06;7.28;-6.00
67358;HTU21D;54240;51.096;5.878;2023-03-14T16:57:33;7.38;-6.00
67358;HTU21D;54240;51.096;5.878;2023-03-14T16:59:59;7.16;-6.00
67358;HTU21D;54240;51.096;5.878;2023-03-14T17:02:25;7.20;-6.00
67358;HTU21D;54240;51.096;5.878;2023-03-14T17:04:51;7.17;-6.00
67358;HTU21D;54240;51.096;5.878;2023-03-14T17:07:16;7.22;-6.00
67358;HTU21D;54240;51.096;5.878;2023-03-14T17:09:42;7.12;-6.00